createdAt,value
2022-10-09T00:00:58.694Z,12.4
2022-10-09T00:06:00.664Z,12.4
2022-10-09T00:11:02.845Z,12.3
2022-10-09T00:16:04.795Z,12.3
2022-10-09T00:21:06.725Z,12.3
2022-10-09T00:26:08.665Z,12.1
2022-10-09T00:31:10.829Z,12.1
2022-10-09T00:36:12.849Z,12.1
2022-10-09T00:41:14.734Z,12
2022-10-09T00:46:17.204Z,11.8
2022-10-09T00:51:19.206Z,11.8
2022-10-09T00:56:21.148Z,11.8
2022-10-09T01:01:23.258Z,11.7
2022-10-09T01:06:26.057Z,11.6
2022-10-09T01:11:27.974Z,11.5
2022-10-09T01:16:30.308Z,11.4
2022-10-09T01:21:32.195Z,11.4
2022-10-09T01:26:34.050Z,11.4
2022-10-09T01:36:37.013Z,11.2
2022-10-09T01:41:38.875Z,11.2
2022-10-09T01:46:41.422Z,11.2
2022-10-09T01:51:43.345Z,11.1
2022-10-09T01:56:45.324Z,11.2
2022-10-09T02:01:47.761Z,11.3
2022-10-09T02:06:50.291Z,11.3
2022-10-09T02:11:52.455Z,11.4
2022-10-09T02:16:54.841Z,11.2
2022-10-09T02:21:56.911Z,11.2
2022-10-09T02:26:58.777Z,11.1
2022-10-09T02:32:01.137Z,11.1
2022-10-09T02:37:03.041Z,11.1
2022-10-09T02:42:04.985Z,11.1
2022-10-09T02:47:07.627Z,11.3
2022-10-09T02:52:09.567Z,11.3
2022-10-09T02:57:11.627Z,11.3
2022-10-09T03:02:14.299Z,11.5
2022-10-09T03:07:17.410Z,11.4
2022-10-09T03:12:19.181Z,11.4
2022-10-09T03:17:21.309Z,11.5
2022-10-09T03:22:23.196Z,11.4
2022-10-09T03:27:25.081Z,11.4
2022-10-09T03:32:27.686Z,11.2
2022-10-09T03:37:29.734Z,11.2
2022-10-09T03:42:31.638Z,11.2
2022-10-09T03:47:33.765Z,11.1
2022-10-09T03:52:35.826Z,11
2022-10-09T03:57:37.781Z,10.9
2022-10-09T04:02:40.158Z,10.8
2022-10-09T04:07:42.646Z,10.7
2022-10-09T04:12:44.777Z,10.7
2022-10-09T04:17:46.954Z,10.7
2022-10-09T04:22:50.083Z,10.6
2022-10-09T04:27:52.476Z,10.5
2022-10-09T04:32:54.994Z,10.5
2022-10-09T04:37:57.040Z,10.5
2022-10-09T04:42:58.927Z,10.5
2022-10-09T04:48:01.032Z,10.6
2022-10-09T04:53:02.902Z,10.5
2022-10-09T04:58:04.859Z,10.4
2022-10-09T05:03:07.079Z,10.4
2022-10-09T05:08:09.191Z,10.5
2022-10-09T05:13:11.016Z,10.5
2022-10-09T05:18:13.999Z,10.5
2022-10-09T05:23:15.980Z,10.5
2022-10-09T05:28:18.115Z,10.5
2022-10-09T05:33:20.309Z,10.6
2022-10-09T05:38:22.366Z,10.8
2022-10-09T05:43:24.765Z,11.7
2022-10-09T05:48:26.678Z,11.7
2022-10-09T05:53:28.657Z,12.7
2022-10-09T05:58:30.565Z,13.6
2022-10-09T06:03:32.506Z,14.4
2022-10-09T06:08:34.615Z,14.6
2022-10-09T06:13:36.604Z,14.9
2022-10-09T06:18:38.827Z,15.7
2022-10-09T06:23:40.787Z,17.1
2022-10-09T06:33:43.631Z,19.3
2022-10-09T06:38:45.707Z,19.9
2022-10-09T06:43:47.858Z,20.3
2022-10-09T06:48:49.821Z,21.9
2022-10-09T06:53:52.115Z,23.1
2022-10-09T06:58:54.037Z,21.1
2022-10-09T07:03:55.992Z,21.3
2022-10-09T07:08:58.273Z,22
2022-10-09T07:14:00.212Z,22.6
2022-10-09T07:19:02.238Z,23.6
2022-10-09T07:24:04.234Z,26.2
2022-10-09T07:29:06.228Z,26.9
2022-10-09T07:34:08.133Z,28.4
2022-10-09T07:39:10.027Z,27.8
2022-10-09T07:44:12.962Z,27.6
2022-10-09T07:49:16.470Z,29.7
2022-10-09T07:54:18.351Z,30.5
2022-10-09T07:59:20.311Z,32
2022-10-09T08:04:22.345Z,31.7
2022-10-09T08:09:24.602Z,32.8
2022-10-09T08:14:26.567Z,32.6
2022-10-09T08:19:29.133Z,32.1
2022-10-09T08:24:31.170Z,32
2022-10-09T08:29:40.001Z,33
2022-10-09T08:34:43.447Z,33.3
2022-10-09T08:39:46.641Z,34.3
2022-10-09T08:44:48.516Z,34.1
2022-10-09T08:49:50.500Z,34.5
2022-10-09T08:54:52.415Z,35.1
2022-10-09T08:59:54.380Z,34.6
2022-10-09T09:04:56.828Z,35.7
2022-10-09T09:09:59.431Z,35.7
2022-10-09T09:15:01.424Z,35.7
2022-10-09T09:20:04.537Z,37.3
2022-10-09T09:25:06.441Z,37.1
2022-10-09T09:30:08.378Z,36.3
2022-10-09T09:35:11.048Z,36.1
2022-10-09T09:40:47.722Z,36.3
2022-10-09T09:45:20.236Z,36.5
2022-10-09T09:51:15.978Z,35.9
2022-10-09T09:55:29.863Z,36
2022-10-09T10:00:32.256Z,36.2
2022-10-09T10:05:34.870Z,36.3
2022-10-09T10:10:37.069Z,36.2
2022-10-09T10:15:39.015Z,36.6
2022-10-09T10:20:41.553Z,34
2022-10-09T10:25:43.825Z,33.8
2022-10-09T10:30:45.808Z,34.5
2022-10-09T10:35:47.795Z,34.8
2022-10-09T10:40:49.802Z,34.4
2022-10-09T10:45:51.856Z,34.7
2022-10-09T10:50:54.419Z,32.8
2022-10-09T10:55:56.764Z,32.6
2022-10-09T11:01:06.618Z,30.9
2022-10-09T11:06:08.785Z,30.7
2022-10-09T11:11:11.019Z,32.5
2022-10-09T11:16:13.492Z,33.2
2022-10-09T11:21:15.474Z,33.1
2022-10-09T11:26:17.464Z,31.4
2022-10-09T11:31:20.338Z,28
2022-10-09T11:36:23.877Z,27.4
2022-10-09T11:41:25.859Z,27.3
2022-10-09T11:46:27.891Z,29.1
2022-10-09T11:51:30.220Z,28.7
2022-10-09T11:56:32.158Z,27.2
2022-10-09T12:01:34.765Z,26.5
2022-10-09T12:06:37.275Z,26.4
2022-10-09T12:11:41.552Z,25.3
2022-10-09T12:16:44.257Z,24
2022-10-09T12:21:46.829Z,23.6
2022-10-09T12:26:48.803Z,23.5
2022-10-09T12:31:50.814Z,23.5
2022-10-09T12:36:52.817Z,24.6
2022-10-09T12:41:54.910Z,24.9
2022-10-09T12:46:57.335Z,25.1
2022-10-09T12:52:01.383Z,25.3
2022-10-09T12:57:03.303Z,25.2
2022-10-09T13:02:06.191Z,25.9
2022-10-09T13:07:08.892Z,25.8
2022-10-09T13:12:10.918Z,24.9
2022-10-09T13:17:13.183Z,24.1
2022-10-09T13:22:15.182Z,23.4
2022-10-09T13:27:17.215Z,23
2022-10-09T13:32:19.269Z,22.5
2022-10-09T13:37:21.212Z,22.5
2022-10-09T13:42:23.098Z,22.5
2022-10-09T13:47:26.611Z,22.1
2022-10-09T13:52:29.985Z,22.1
2022-10-09T13:57:32.203Z,22
2022-10-09T14:02:34.475Z,21.8
2022-10-09T14:07:37.121Z,21.3
2022-10-09T14:12:39.665Z,21.2
2022-10-09T14:17:41.794Z,21.1
2022-10-09T14:22:44.222Z,20.6
2022-10-09T14:27:46.231Z,20.6
2022-10-09T14:32:49.441Z,20.1
2022-10-09T14:37:52.556Z,20.1
2022-10-09T14:42:54.654Z,19.6
2022-10-09T14:47:56.625Z,19.3
2022-10-09T14:52:58.595Z,19.2
2022-10-09T14:58:00.644Z,19.1
2022-10-09T15:03:02.810Z,18.9
2022-10-09T15:08:04.766Z,18.9
2022-10-09T15:13:07.069Z,18.7
2022-10-09T15:18:09.038Z,18.6
2022-10-09T15:23:11.758Z,18.3
2022-10-09T15:28:13.739Z,18.2
2022-10-09T15:33:15.741Z,18.1
2022-10-09T15:38:17.745Z,17.9
2022-10-09T15:43:19.774Z,17.7
2022-10-09T15:48:21.892Z,17.5
2022-10-09T15:53:24.399Z,17.1
2022-10-09T15:58:26.386Z,17.1
2022-10-09T16:08:29.457Z,16.7
2022-10-09T16:13:32.205Z,16.4
2022-10-09T16:18:34.150Z,16.4
2022-10-09T16:23:36.329Z,16.2
2022-10-09T16:28:38.851Z,16
2022-10-09T16:33:41.027Z,16
